Time;durP1;ratioP1;P1;durP2;ratioP2;P2;SDS_P1;SDS_P2;PMS_P1;PMS_P2;Temp;Humidity;BMP_temperature;BMP_pressure;BME280_temperature;BME280_humidity;BME280_pressure;Samples;Min_cycle;Max_cycle;Signal;HPM_P1;HPM_P2
2023/04/28 00:00:50;;;;;;;13.27;8.02;;;;;;;9.50;72.21;101430.78;5065729;28;20028;-70
2023/04/28 00:03:16;;;;;;;13.07;8.02;;;;;;;9.52;71.83;101417.75;5075027;28;20035;-70
2023/04/28 00:05:41;;;;;;;13.43;8.90;;;;;;;9.48;72.82;101421.88;5078181;28;20024;-70
2023/04/28 00:08:07;;;;;;;15.43;7.37;;;;;;;9.43;72.32;101413.34;5075674;28;20082;-70
2023/04/28 00:10:33;;;;;;;21.00;10.10;;;;;;;9.41;73.69;101421.75;5075515;28;20083;-70
2023/04/28 00:12:59;;;;;;;16.00;9.40;;;;;;;9.33;73.47;101415.41;5078403;28;20028;-70
2023/04/28 00:15:24;;;;;;;16.47;8.77;;;;;;;9.32;73.99;101408.25;5072939;28;20025;-70
2023/04/28 00:17:50;;;;;;;14.05;8.52;;;;;;;9.29;74.30;101406.72;5069978;28;20389;-70
2023/04/28 00:20:15;;;;;;;11.48;7.60;;;;;;;9.31;73.80;101409.28;5079456;28;20085;-70
2023/04/28 00:22:41;;;;;;;11.07;8.00;;;;;;;9.30;74.22;101397.47;5077725;28;20029;-69
2023/04/28 00:25:07;;;;;;;11.68;8.57;;;;;;;9.27;74.91;101400.59;5074537;28;20268;-69
2023/04/28 00:27:33;;;;;;;13.47;8.43;;;;;;;9.34;73.67;101395.28;5077499;28;20139;-69
2023/04/28 00:29:59;;;;;;;11.13;8.23;;;;;;;9.34;74.32;101392.53;5073445;28;20360;-69
2023/04/28 00:32:24;;;;;;;18.80;9.23;;;;;;;9.30;74.31;101383.81;5077990;28;20050;-69
2023/04/28 00:34:50;;;;;;;14.05;9.13;;;;;;;9.25;74.45;101380.78;5074842;28;20024;-69
2023/04/28 00:37:16;;;;;;;18.02;9.32;;;;;;;9.25;73.21;101366.25;5077653;28;20021;-69
2023/04/28 00:39:44;;;;;;;15.10;8.07;;;;;;;9.27;73.79;101372.38;5069574;28;20060;-70
2023/04/28 00:42:09;;;;;;;15.45;8.73;;;;;;;9.27;73.12;101364.19;5073771;28;20025;-69
2023/04/28 00:44:35;;;;;;;12.23;7.78;;;;;;;9.28;73.77;101355.81;5072041;28;20416;-70
2023/04/28 00:47:01;;;;;;;17.83;9.57;;;;;;;9.26;73.50;101351.56;5066880;28;20029;-70
2023/04/28 00:49:27;;;;;;;13.05;8.48;;;;;;;9.22;74.28;101350.19;5067100;28;20488;-70
2023/04/28 00:51:52;;;;;;;13.82;8.55;;;;;;;9.20;73.59;101335.88;5078420;28;20043;-70
2023/04/28 00:54:17;;;;;;;12.65;7.80;;;;;;;9.20;73.48;101335.88;5080604;28;20758;-70
2023/04/28 00:56:43;;;;;;;13.50;8.65;;;;;;;9.20;73.73;101331.25;5077540;28;20029;-70
2023/04/28 00:59:09;;;;;;;17.10;8.93;;;;;;;9.22;73.86;101339.25;5066982;28;20175;-69
2023/04/28 01:01:35;;;;;;;11.73;8.18;;;;;;;9.21;73.43;101329.38;5070007;28;20033;-69
2023/04/28 01:04:01;;;;;;;13.95;8.57;;;;;;;9.19;73.10;101324.06;5073323;28;20070;-69
2023/04/28 01:06:27;;;;;;;12.48;7.90;;;;;;;9.21;72.76;101312.97;5071816;28;20064;-70
2023/04/28 01:08:53;;;;;;;13.13;8.48;;;;;;;9.23;72.48;101311.75;5076159;28;20563;-69
2023/04/28 01:11:19;;;;;;;16.08;8.85;;;;;;;9.24;72.71;101315.34;5079951;28;20024;-70
2023/04/28 01:13:44;;;;;;;18.57;8.87;;;;;;;9.28;71.76;101316.72;5077402;28;20032;-70
2023/04/28 01:16:10;;;;;;;14.45;8.20;;;;;;;9.23;72.07;101316.41;5064477;28;20600;-70
2023/04/28 01:18:36;;;;;;;13.90;8.35;;;;;;;9.22;72.84;101295.53;5071901;28;20394;-70
2023/04/28 01:21:03;;;;;;;12.38;8.45;;;;;;;9.21;72.29;101313.84;5079066;28;20478;-70
2023/04/28 01:23:28;;;;;;;14.00;9.20;;;;;;;9.24;72.46;101315.34;5068296;28;20020;-70
2023/04/28 01:25:54;;;;;;;10.15;8.18;;;;;;;9.28;71.99;101311.25;5076151;28;20162;-69
2023/04/28 01:28:19;;;;;;;17.25;8.23;;;;;;;9.25;72.25;101304.25;5073885;28;20484;-70
2023/04/28 01:30:45;;;;;;;13.82;8.43;;;;;;;9.25;72.86;101301.53;5073459;28;20466;-70
2023/04/28 01:33:10;;;;;;;18.70;8.75;;;;;;;9.25;72.96;101301.53;5076606;28;20046;-70
2023/04/28 01:35:35;;;;;;;14.75;8.75;;;;;;;9.22;74.05;101292.81;5070305;28;20033;-70
2023/04/28 01:38:01;;;;;;;13.35;8.95;;;;;;;9.21;74.16;101277.44;5078409;28;20036;-70
2023/04/28 01:40:27;;;;;;;13.30;9.35;;;;;;;9.17;73.51;101287.00;5085885;28;20054;-69
2023/04/28 01:42:52;;;;;;;12.68;8.95;;;;;;;9.13;74.33;101277.50;5071657;28;20027;-69
2023/04/28 01:45:18;;;;;;;17.35;9.52;;;;;;;9.17;74.03;101279.69;5079097;28;20028;-69
2023/04/28 01:47:43;;;;;;;15.82;8.90;;;;;;;9.18;74.59;101278.63;5076093;28;20044;-69
2023/04/28 01:50:09;;;;;;;12.27;8.55;;;;;;;9.16;74.37;101275.25;5077304;28;20036;-69
2023/04/28 01:52:36;;;;;;;18.48;10.45;;;;;;;9.18;73.92;101273.19;5078829;28;20398;-69
2023/04/28 01:55:01;;;;;;;;;;;;;;;9.16;74.00;101275.25;5058576;28;20451;-69
2023/04/28 01:57:28;;;;;;;19.45;9.80;;;;;;;9.16;74.01;101263.44;5069901;28;19982;-69
2023/04/28 01:59:53;;;;;;;14.10;8.80;;;;;;;9.14;74.90;101246.38;5071551;28;20033;-69
2023/04/28 02:02:19;;;;;;;20.50;9.00;;;;;;;9.11;75.19;101239.41;5080641;28;20031;-69
2023/04/28 02:04:44;;;;;;;12.43;9.23;;;;;;;9.09;75.30;101251.53;5074484;28;20024;-69
2023/04/28 02:07:10;;;;;;;20.63;11.38;;;;;;;9.10;74.60;101245.03;5073675;28;20028;-69
2023/04/28 02:09:35;;;;;;;18.98;9.35;;;;;;;9.09;74.61;101232.41;5080642;28;20032;-70
2023/04/28 02:12:01;;;;;;;15.27;9.23;;;;;;;9.06;75.29;101239.09;5079882;28;20042;-70
2023/04/28 02:14:27;;;;;;;13.68;9.65;;;;;;;9.06;75.50;101235.47;5078324;28;20032;-70
2023/04/28 02:16:52;;;;;;;16.85;9.80;;;;;;;9.12;74.40;101243.84;5079228;28;20024;-70
2023/04/28 02:19:18;;;;;;;19.88;9.68;;;;;;;9.20;73.82;101237.47;5084144;28;20028;-70
2023/04/28 02:21:43;;;;;;;13.68;9.07;;;;;;;9.10;74.58;101223.19;5072019;28;20021;-70
2023/04/28 02:24:09;;;;;;;16.17;8.98;;;;;;;9.08;74.46;101223.34;5079636;28;20093;-69
2023/04/28 02:26:34;;;;;;;15.60;9.15;;;;;;;9.05;75.03;101220.13;5081981;28;20476;-69
2023/04/28 02:29:00;;;;;;;13.27;8.75;;;;;;;9.07;75.26;101212.63;5079187;28;20452;-69
2023/04/28 02:31:25;;;;;;;23.90;10.27;;;;;;;9.06;75.22;101209.03;5077263;28;20053;-69
2023/04/28 02:33:51;;;;;;;16.58;9.57;;;;;;;9.05;74.85;101210.06;5080105;28;20797;-69
2023/04/28 02:36:17;;;;;;;15.15;9.70;;;;;;;9.03;75.49;101211.28;5078529;28;21735;-72
2023/04/28 02:38:42;;;;;;;16.80;9.73;;;;;;;8.96;75.31;101202.09;5070772;28;20020;-71
2023/04/28 02:41:08;;;;;;;15.80;10.00;;;;;;;8.99;75.24;101207.19;5078655;28;20053;-72
2023/04/28 02:43:35;;;;;;;15.90;9.63;;;;;;;9.03;75.05;101208.53;5076591;28;20111;-72
2023/04/28 02:46:03;;;;;;;20.80;9.73;;;;;;;8.97;75.57;101214.72;5076070;28;20024;-72
2023/04/28 02:48:28;;;;;;;24.02;9.88;;;;;;;9.01;75.36;101221.50;5076685;28;20060;-72
2023/04/28 02:50:54;;;;;;;15.55;9.20;;;;;;;8.99;75.43;101218.97;5068763;28;20148;-72
2023/04/28 02:53:21;;;;;;;17.85;9.10;;;;;;;9.01;75.31;101214.16;5075943;28;20033;-73
2023/04/28 02:55:46;;;;;;;15.00;9.20;;;;;;;9.07;75.54;101215.34;5075796;28;20115;-73
2023/04/28 02:58:12;;;;;;;13.98;9.60;;;;;;;9.06;75.53;101203.56;5073276;28;20595;-71
2023/04/28 03:00:38;;;;;;;19.40;9.90;;;;;;;9.04;76.50;101197.44;5065646;28;20051;-72
2023/04/28 03:03:04;;;;;;;14.57;9.98;;;;;;;9.03;76.79;101209.38;5082252;28;20080;-72
2023/04/28 03:05:29;;;;;;;14.00;9.65;;;;;;;9.07;76.88;101204.44;5079001;28;20036;-71
2023/04/28 03:07:55;;;;;;;15.07;9.98;;;;;;;9.06;77.44;101210.88;5076875;28;20150;-72
2023/04/28 03:10:20;;;;;;;15.07;9.45;;;;;;;9.07;77.27;101198.97;5078173;28;20056;-72
2023/04/28 03:12:46;;;;;;;13.20;10.00;;;;;;;9.11;77.22;101189.34;5078578;28;20046;-72
2023/04/28 03:15:11;;;;;;;16.65;10.35;;;;;;;9.09;77.35;101186.81;5074986;28;20070;-72
2023/04/28 03:17:38;;;;;;;22.10;10.63;;;;;;;9.11;77.73;101201.16;5061848;28;20549;-72
2023/04/28 03:20:04;;;;;;;20.85;10.93;;;;;;;9.14;76.73;101189.00;5072324;28;20082;-73
2023/04/28 03:22:30;;;;;;;16.33;9.65;;;;;;;9.12;77.64;101191.91;5080388;28;20071;-72
2023/04/28 03:24:55;;;;;;;17.55;9.70;;;;;;;9.06;78.09;101180.84;5081570;28;20865;-72
2023/04/28 03:27:21;;;;;;;20.45;9.90;;;;;;;9.08;78.29;101184.25;5063111;28;20021;-73
2023/04/28 03:29:47;;;;;;;15.38;10.93;;;;;;;9.06;78.05;101175.38;5072842;28;20055;-72
2023/04/28 03:32:12;;;;;;;15.57;10.52;;;;;;;9.05;78.29;101173.69;5076597;28;20461;-73
2023/04/28 03:34:38;;;;;;;14.95;9.95;;;;;;;9.05;78.83;101165.47;5078925;28;20029;-72
2023/04/28 03:37:04;;;;;;;17.52;11.13;;;;;;;9.06;78.98;101170.78;5076560;28;20060;-72
2023/04/28 03:39:31;;;;;;;15.37;10.40;;;;;;;9.12;79.14;101169.22;5075467;28;20519;-72
2023/04/28 03:41:56;;;;;;;23.58;11.27;;;;;;;9.06;79.73;101173.50;5070753;28;20028;-72
2023/04/28 03:44:22;;;;;;;16.63;10.68;;;;;;;9.05;79.80;101162.75;5073247;28;20376;-72
2023/04/28 03:46:48;;;;;;;17.23;10.18;;;;;;;9.08;80.17;101162.41;5075783;28;20409;-72
2023/04/28 03:49:13;;;;;;;15.27;10.20;;;;;;;9.06;80.04;101158.97;5074056;28;20036;-73
2023/04/28 03:51:39;;;;;;;16.13;10.90;;;;;;;9.03;80.22;101154.72;5079003;28;20507;-72
2023/04/28 03:54:04;;;;;;;19.58;11.20;;;;;;;9.04;80.20;101152.84;5075400;28;20481;-73
2023/04/28 03:56:30;;;;;;;21.27;10.63;;;;;;;9.05;80.65;101144.47;5076140;28;20023;-73
2023/04/28 03:58:55;;;;;;;17.30;10.98;;;;;;;9.03;80.65;101151.16;5075418;28;20074;-72
2023/04/28 04:01:21;;;;;;;20.05;11.00;;;;;;;9.07;80.83;101144.31;5078673;28;20028;-73
2023/04/28 04:03:47;;;;;;;19.05;11.18;;;;;;;9.02;80.91;101149.47;5073790;28;20436;-72
2023/04/28 04:06:13;;;;;;;15.45;11.02;;;;;;;9.04;81.54;101156.44;5073717;28;20028;-73
2023/04/28 04:08:39;;;;;;;13.82;10.43;;;;;;;9.10;81.07;101146.66;5075797;28;20033;-72
2023/04/28 04:11:05;;;;;;;21.92;11.50;;;;;;;9.07;81.60;101141.56;5077444;28;20029;-72
2023/04/28 04:13:30;;;;;;;24.08;11.02;;;;;;;9.11;81.19;101131.97;5069649;28;20029;-72
2023/04/28 04:15:56;;;;;;;19.52;10.68;;;;;;;9.08;81.82;101138.63;5072274;28;20020;-72
2023/04/28 04:18:21;;;;;;;23.83;11.63;;;;;;;9.08;82.34;101135.06;5078701;28;20104;-71
2023/04/28 04:20:48;;;;;;;17.08;11.32;;;;;;;9.10;82.32;101127.53;5077578;28;20050;-73
2023/04/28 04:23:14;;;;;;;21.80;12.23;;;;;;;9.07;82.30;101131.47;5080216;28;20024;-72
2023/04/28 04:25:39;;;;;;;18.58;11.57;;;;;;;9.11;81.87;101131.97;5077545;28;20440;-73
2023/04/28 04:28:05;;;;;;;20.33;11.65;;;;;;;9.05;83.04;101121.75;5071706;28;20024;-72
2023/04/28 04:30:30;;;;;;;26.08;12.23;;;;;;;9.12;82.35;101120.84;5076492;28;20504;-73
2023/04/28 04:32:55;;;;;;;20.98;11.52;;;;;;;9.13;82.82;101128.03;5080493;28;20028;-72
2023/04/28 04:35:21;;;;;;;23.60;13.50;;;;;;;9.19;82.62;101130.03;5073983;28;20071;-71
2023/04/28 04:37:46;;;;;;;17.20;12.35;;;;;;;9.13;83.46;101119.00;5075823;28;20720;-73
2023/04/28 04:40:12;;;;;;;23.48;12.50;;;;;;;9.10;83.74;101111.13;5074091;28;20036;-72
2023/04/28 04:42:37;;;;;;;20.27;13.13;;;;;;;9.16;83.79;101121.34;5073012;28;20060;-73
2023/04/28 04:45:03;;;;;;;16.55;12.32;;;;;;;9.14;84.46;101116.06;5072288;28;20050;-73
2023/04/28 04:47:28;;;;;;;21.75;12.52;;;;;;;9.17;84.77;101091.09;5069224;28;20028;-73
2023/04/28 04:49:54;;;;;;;23.50;13.40;;;;;;;9.10;86.07;101098.34;5075512;28;20077;-73
2023/04/28 04:52:19;;;;;;;21.38;13.15;;;;;;;9.08;86.66;101108.59;5082216;28;20043;-73
2023/04/28 04:54:45;;;;;;;27.85;13.90;;;;;;;9.04;87.08;101100.94;5076765;28;20028;-73
2023/04/28 04:57:11;;;;;;;20.48;13.30;;;;;;;9.02;87.44;101108.47;5073907;28;20028;-73
2023/04/28 04:59:37;;;;;;;20.63;12.90;;;;;;;9.04;88.22;101095.47;5074033;28;20155;-73
2023/04/28 05:02:02;;;;;;;21.83;13.65;;;;;;;9.01;88.37;101093.97;5066688;28;20121;-74
2023/04/28 05:04:28;;;;;;;22.92;13.65;;;;;;;9.06;88.65;101086.06;5066693;28;20031;-73
2023/04/28 05:06:53;;;;;;;16.63;12.23;;;;;;;9.22;88.87;101071.41;5058653;28;20082;-72
2023/04/28 05:09:18;;;;;;;21.63;13.77;;;;;;;9.14;89.48;101087.91;5071495;28;20021;-73
2023/04/28 05:11:44;;;;;;;22.10;14.00;;;;;;;9.11;90.40;101093.72;5070972;28;20081;-72
2023/04/28 05:14:10;;;;;;;24.03;13.90;;;;;;;9.15;91.31;101086.84;5076338;28;20549;-73
2023/04/28 05:16:37;;;;;;;27.57;13.90;;;;;;;9.06;92.88;101091.53;5082150;28;20393;-72
2023/04/28 05:19:03;;;;;;;20.35;15.30;;;;;;;9.02;94.73;101092.09;5078565;28;20051;-72
2023/04/28 05:21:29;;;;;;;27.13;15.50;;;;;;;8.98;96.80;101097.03;5073806;28;20493;-73
2023/04/28 05:23:54;;;;;;;23.67;14.45;;;;;;;8.90;98.82;101093.50;5074548;28;20071;-73
2023/04/28 05:26:20;;;;;;;27.75;16.05;;;;;;;8.86;100.00;101101.22;5082199;28;20477;-73
2023/04/28 05:28:45;;;;;;;24.40;15.02;;;;;;;8.93;100.00;101102.22;5074724;28;20032;-73
2023/04/28 05:31:11;;;;;;;24.50;14.57;;;;;;;8.94;100.00;101100.31;5078073;28;20044;-73
2023/04/28 05:33:36;;;;;;;22.80;14.98;;;;;;;8.95;100.00;101105.63;5076310;28;20040;-73
2023/04/28 05:36:02;;;;;;;22.03;15.03;;;;;;;8.97;100.00;101099.97;5072214;28;20099;-73
2023/04/28 05:38:27;;;;;;;29.27;16.77;;;;;;;8.92;100.00;101102.41;5078152;28;20484;-73
2023/04/28 05:40:53;;;;;;;28.67;15.88;;;;;;;8.91;100.00;101097.97;5080519;28;20036;-73
2023/04/28 05:43:18;;;;;;;28.27;15.98;;;;;;;8.87;100.00;101093.88;5075774;28;20064;-73
2023/04/28 05:45:47;;;;;;;29.13;17.52;;;;;;;8.86;100.00;101092.19;5075501;28;20024;-74
2023/04/28 05:48:12;;;;;;;26.75;15.77;;;;;;;8.92;100.00;101097.75;5077633;28;20062;-73
2023/04/28 05:50:37;;;;;;;24.88;16.50;;;;;;;8.93;100.00;101090.44;5071786;28;20098;-73
2023/04/28 05:53:03;;;;;;;32.65;16.40;;;;;;;9.00;100.00;101094.13;5075100;28;20049;-73
2023/04/28 05:55:29;;;;;;;22.35;15.77;;;;;;;9.01;100.00;101091.22;5074806;28;20048;-72
2023/04/28 05:57:54;;;;;;;24.98;14.65;;;;;;;9.01;100.00;101096.69;5079415;28;20455;-72
2023/04/28 06:00:21;;;;;;;23.35;16.67;;;;;;;9.06;100.00;101104.31;5072780;28;20132;-73
2023/04/28 06:02:46;;;;;;;27.33;16.63;;;;;;;9.08;100.00;101103.13;5067958;28;20073;-73
2023/04/28 06:05:11;;;;;;;28.77;16.40;;;;;;;9.15;100.00;101097.78;5075783;28;20439;-73
2023/04/28 06:07:37;;;;;;;26.02;17.40;;;;;;;9.16;100.00;101096.75;5076890;28;20043;-73
2023/04/28 06:10:02;;;;;;;25.58;16.08;;;;;;;9.21;100.00;101099.78;5071463;28;20036;-73
2023/04/28 06:12:28;;;;;;;24.02;16.20;;;;;;;9.26;100.00;101091.88;5077550;28;20059;-74
2023/04/28 06:14:54;;;;;;;22.73;15.37;;;;;;;9.35;100.00;101079.88;5080404;28;20389;-74
2023/04/28 06:17:20;;;;;;;26.60;16.10;;;;;;;9.43;100.00;101086.13;5075936;28;20032;-74
2023/04/28 06:19:45;;;;;;;30.27;18.17;;;;;;;9.49;100.00;101074.44;5080529;28;20421;-73
2023/04/28 06:22:11;;;;;;;30.25;19.25;;;;;;;9.56;100.00;101083.59;5070600;28;20036;-73
2023/04/28 06:24:37;;;;;;;31.95;17.63;;;;;;;9.59;100.00;101082.38;5077084;28;20023;-72
2023/04/28 06:27:02;;;;;;;27.77;17.27;;;;;;;9.61;100.00;101083.88;5071078;28;20059;-73
2023/04/28 06:29:27;;;;;;;30.07;17.97;;;;;;;9.68;100.00;101079.41;5069250;28;20470;-73
2023/04/28 06:31:56;;;;;;;29.27;15.88;;;;;;;9.74;100.00;101083.25;5067961;28;20119;-72
2023/04/28 06:34:29;;;;;;;29.98;17.20;;;;;;;9.83;100.00;101080.25;5078766;28;20038;-73
2023/04/28 06:36:57;;;;;;;27.42;17.67;;;;;;;9.74;100.00;101083.25;5069107;28;20355;-73
2023/04/28 06:39:22;;;;;;;30.20;18.05;;;;;;;9.80;100.00;101077.91;5074199;28;20028;-74
2023/04/28 06:41:48;;;;;;;29.15;18.90;;;;;;;9.93;100.00;101078.09;5072811;28;20027;-73
2023/04/28 06:44:13;;;;;;;27.90;17.98;;;;;;;9.87;100.00;101070.63;5068263;28;20068;-73
2023/04/28 06:46:38;;;;;;;32.08;18.05;;;;;;;9.98;100.00;101075.63;5072159;28;20025;-73
2023/04/28 06:49:04;;;;;;;31.37;18.77;;;;;;;10.02;100.00;101070.63;5078678;28;20024;-73
2023/04/28 06:51:33;;;;;;;28.77;18.67;;;;;;;10.09;100.00;101074.38;5074419;28;20363;-73
2023/04/28 06:53:58;;;;;;;28.20;18.45;;;;;;;10.16;100.00;101080.78;5074639;28;20097;-73
2023/04/28 06:56:24;;;;;;;33.85;20.20;;;;;;;9.98;100.00;101077.53;5075409;28;20024;-73
2023/04/28 06:58:50;;;;;;;29.77;18.83;;;;;;;9.92;100.00;101075.56;5067879;28;20044;-74
2023/04/28 07:01:15;;;;;;;31.13;17.90;;;;;;;9.95;100.00;101070.56;5071013;28;20795;-73
2023/04/28 07:03:41;;;;;;;31.45;19.55;;;;;;;10.01;100.00;101067.06;5071362;28;20536;-72
2023/04/28 07:06:07;;;;;;;28.70;19.27;;;;;;;9.96;100.00;101076.88;5070144;28;20587;-73
2023/04/28 07:08:33;;;;;;;28.30;19.53;;;;;;;9.94;100.00;101085.25;5066631;28;20020;-73
2023/04/28 07:10:58;;;;;;;32.35;19.30;;;;;;;9.98;100.00;101075.63;5076222;28;20028;-72
2023/04/28 07:13:24;;;;;;;34.83;19.17;;;;;;;10.03;100.00;101078.66;5069558;28;20035;-73
2023/04/28 07:15:49;;;;;;;27.52;18.15;;;;;;;10.09;100.00;101077.09;5069419;28;20107;-72
2023/04/28 07:18:15;;;;;;;28.27;20.02;;;;;;;10.18;100.00;101071.34;5067388;28;20029;-73
2023/04/28 07:20:40;;;;;;;34.38;21.23;;;;;;;10.17;100.00;101071.53;5064445;28;20078;-73
2023/04/28 07:23:06;;;;;;;30.08;19.88;;;;;;;10.17;100.00;101075.13;5066888;28;20036;-72
2023/04/28 07:25:31;;;;;;;32.55;20.85;;;;;;;10.31;100.00;101076.97;5071163;28;20032;-73
2023/04/28 07:27:57;;;;;;;34.53;20.50;;;;;;;10.44;100.00;101081.78;5061177;28;20563;-72
2023/04/28 07:30:22;;;;;;;32.20;20.27;;;;;;;10.45;100.00;101076.13;5065162;28;20032;-73
2023/04/28 07:32:47;;;;;;;34.83;20.23;;;;;;;10.42;100.00;101076.50;5068946;28;20024;-73
2023/04/28 07:35:13;;;;;;;30.83;20.85;;;;;;;10.34;100.00;101064.81;5076992;28;20013;-72
2023/04/28 07:37:38;;;;;;;29.60;20.40;;;;;;;10.38;100.00;101077.94;5073717;28;20031;-73
2023/04/28 07:40:05;;;;;;;30.87;20.17;;;;;;;10.55;100.00;101078.56;5082174;28;20108;-72
2023/04/28 07:42:31;;;;;;;31.90;20.67;;;;;;;10.67;100.00;101066.94;5064817;28;20029;-73
2023/04/28 07:44:57;;;;;;;26.20;19.50;;;;;;;10.67;100.00;101068.84;5071349;28;20098;-72
2023/04/28 07:47:23;;;;;;;28.08;19.73;;;;;;;10.79;100.00;101064.53;5079151;28;20047;-73
2023/04/28 07:49:48;;;;;;;32.73;20.20;;;;;;;10.84;100.00;101078.50;5079536;28;20059;-72
2023/04/28 07:52:14;;;;;;;28.93;19.83;;;;;;;10.92;100.00;101070.16;5075129;28;20036;-73
2023/04/28 07:54:39;;;;;;;28.73;19.67;;;;;;;11.00;100.00;101079.09;5082545;28;20020;-73
2023/04/28 07:57:05;;;;;;;24.65;18.48;;;;;;;10.99;100.00;101071.09;5073843;28;20126;-73
2023/04/28 07:59:33;;;;;;;30.42;18.58;;;;;;;11.03;100.00;101073.25;5065294;28;20052;-73
2023/04/28 08:01:58;;;;;;;29.35;19.58;;;;;;;11.13;100.00;101078.41;5070993;28;20578;-73
2023/04/28 08:04:24;;;;;;;26.03;19.13;;;;;;;11.09;100.00;101077.94;5071993;28;20034;-73
2023/04/28 08:06:49;;;;;;;24.85;19.88;;;;;;;11.14;100.00;101075.47;5070391;28;20028;-73
2023/04/28 08:09:15;;;;;;;26.92;18.92;;;;;;;11.25;100.00;101076.81;5073973;28;20456;-73
2023/04/28 08:11:40;;;;;;;28.93;19.53;;;;;;;11.50;100.00;101075.38;5078900;28;20073;-72
2023/04/28 08:14:05;;;;;;;29.23;19.23;;;;;;;11.63;100.00;101070.06;5071025;28;20070;-72
2023/04/28 08:16:31;;;;;;;25.83;19.80;;;;;;;11.66;100.00;101069.66;5070876;28;20033;-73
2023/04/28 08:18:59;;;;;;;28.77;20.13;;;;;;;11.75;100.00;101068.47;5071329;28;20111;-73
2023/04/28 08:21:24;;;;;;;27.15;19.60;;;;;;;11.83;100.00;101066.41;5073657;28;20326;-73
2023/04/28 08:23:50;;;;;;;25.00;19.47;;;;;;;11.89;100.00;101065.59;5074581;28;20024;-73
2023/04/28 08:26:15;;;;;;;25.13;20.13;;;;;;;11.96;100.00;101073.91;5069330;28;20036;-73
2023/04/28 08:28:41;;;;;;;25.93;19.23;;;;;;;11.99;100.00;101078.97;5068032;28;20020;-73
2023/04/28 08:31:06;;;;;;;28.63;19.70;;;;;;;12.01;100.00;101074.16;5075928;28;20051;-72
2023/04/28 08:33:31;;;;;;;25.50;19.10;;;;;;;11.96;100.00;101065.66;5075276;28;20035;-73
2023/04/28 08:35:57;;;;;;;23.80;19.10;;;;;;;12.03;100.00;101075.66;5063472;28;20714;-73
2023/04/28 08:38:24;;;;;;;25.48;19.58;;;;;;;12.18;100.00;101072.78;5075141;28;20032;-75
2023/04/28 08:40:49;;;;;;;23.45;18.77;;;;;;;12.19;100.00;101061.59;5069757;28;20631;-73
2023/04/28 08:43:15;;;;;;;26.27;19.37;;;;;;;12.27;100.00;101075.16;5069834;28;20036;-73
2023/04/28 08:45:42;;;;;;;23.30;18.48;;;;;;;12.27;100.00;101066.91;5069204;28;20020;-72
2023/04/28 08:48:21;;;;;;;32.13;19.80;;;;;;;12.27;100.00;101072.41;5059596;28;20036;-73
2023/04/28 08:50:53;;;;;;;25.67;18.80;;;;;;;12.36;100.00;101073.06;5065546;28;20418;-74
2023/04/28 08:53:28;;;;;;;23.65;19.67;;;;;;;12.47;100.00;101081.59;5076676;28;20418;-74
2023/04/28 08:55:55;;;;;;;27.58;19.23;;;;;;;12.58;100.00;101072.78;5076583;28;20026;-73
2023/04/28 08:58:25;;;;;;;28.77;19.48;;;;;;;12.59;100.00;101068.97;5070709;28;20113;-73
2023/04/28 09:00:53;;;;;;;26.55;19.80;;;;;;;12.69;100.00;101065.81;5070194;28;20058;-73
2023/04/28 09:03:19;;;;;;;27.27;20.67;;;;;;;12.71;100.00;101066.50;5065954;28;20024;-73
2023/04/28 09:05:44;;;;;;;34.30;20.93;;;;;;;12.80;100.00;101062.50;5064413;28;20738;-73
2023/04/28 09:08:13;;;;;;;27.40;21.27;;;;;;;12.82;100.00;101061.22;5073170;28;20052;-73
2023/04/28 09:10:38;;;;;;;31.10;21.77;;;;;;;12.81;100.00;101066.94;5064213;28;20554;-73
2023/04/28 09:13:04;;;;;;;30.20;22.27;;;;;;;12.87;100.00;101060.63;5063788;28;20112;-73
2023/04/28 09:15:37;;;;;;;34.77;21.77;;;;;;;12.91;100.00;101061.91;5063625;28;20052;-73
2023/04/28 09:18:05;;;;;;;31.92;21.35;;;;;;;13.01;100.00;101068.72;5070113;28;20477;-73
2023/04/28 09:20:32;;;;;;;31.65;22.00;;;;;;;13.09;100.00;101067.69;5062554;28;20072;-74
2023/04/28 09:23:11;;;;;;;;;;;;;;;13.18;100.00;101067.28;5073499;28;20024;-74
2023/04/28 09:25:37;;;;;;;24.77;18.88;;;;;;;13.17;100.00;101061.97;5071626;28;20383;-74
2023/04/28 09:28:33;;;;;;;26.17;18.03;;;;;;;13.18;100.00;101059.03;5069803;28;20024;-74
2023/04/28 09:30:58;;;;;;;28.65;18.98;;;;;;;13.32;100.00;101054.41;5053465;28;20028;-73
2023/04/28 09:33:24;;;;;;;23.47;16.90;;;;;;;13.35;100.00;101059.50;5067291;28;20477;-73
2023/04/28 09:35:50;;;;;;;17.50;14.00;;;;;;;13.30;100.00;101059.28;5067731;28;20031;-74
2023/04/28 09:38:17;;;;;;;20.57;14.33;;;;;;;13.45;100.00;101059.94;5070026;28;20032;-74
2023/04/28 09:41:00;;;;;;;19.65;14.68;;;;;;;13.35;100.00;101065.81;5068781;28;20052;-73
2023/04/28 09:43:33;;;;;;;27.50;14.68;;;;;;;13.41;100.00;101061.41;5066588;28;20032;-73
2023/04/28 09:46:01;;;;;;;19.00;12.88;;;;;;;13.25;100.00;101065.41;5070269;28;20086;-73
2023/04/28 09:48:27;;;;;;;18.92;12.30;;;;;;;13.21;100.00;101066.03;5066052;28;20138;-73
2023/04/28 09:50:58;;;;;;;16.83;11.52;;;;;;;13.23;100.00;101069.44;5068900;28;20089;-73
2023/04/28 09:53:24;;;;;;;19.45;11.40;;;;;;;13.23;100.00;101061.19;5065662;28;20033;-73
2023/04/28 09:55:52;;;;;;;18.20;11.07;;;;;;;13.20;100.00;101064.31;5067631;28;20166;-74
2023/04/28 09:58:22;;;;;;;14.02;10.13;;;;;;;13.09;100.00;101070.44;5062317;28;20585;-74
2023/04/28 10:00:56;;;;;;;16.65;10.32;;;;;;;13.20;100.00;101080.84;5063869;28;20028;-73
2023/04/28 10:03:26;;;;;;;17.23;10.18;;;;;;;13.31;100.00;101075.56;5068720;28;20385;-74
2023/04/28 10:05:52;;;;;;;16.55;10.07;;;;;;;13.35;100.00;101070.50;5082775;28;20040;-73
2023/04/28 10:08:21;;;;;;;17.20;9.50;;;;;;;13.38;100.00;101067.31;5067532;28;20048;-75
2023/04/28 10:10:53;;;;;;;15.90;9.80;;;;;;;13.47;100.00;101066.06;5061758;28;20044;-74
2023/04/28 10:13:20;;;;;;;14.98;9.45;;;;;;;13.47;100.00;101064.16;5070041;28;20024;-73
2023/04/28 10:15:47;;;;;;;13.57;9.18;;;;;;;13.56;100.00;101079.38;5073390;28;20075;-73
2023/04/28 10:18:13;;;;;;;15.02;9.35;;;;;;;13.59;100.00;101064.34;5071029;28;20600;-73
2023/04/28 10:20:40;;;;;;;;;;;;;;;13.76;100.00;101076.66;5075165;28;20047;-72
2023/04/28 10:23:24;;;;;;;15.77;8.65;;;;;;;13.69;100.00;101068.41;5074969;28;20365;-72
2023/04/28 10:25:56;;;;;;;15.10;9.05;;;;;;;13.92;100.00;101054.19;5074935;28;20035;-73
2023/04/28 10:28:22;;;;;;;12.80;8.30;;;;;;;14.07;100.00;101065.81;5072881;28;20028;-72
2023/04/28 10:31:13;;;;;;;18.50;8.52;;;;;;;14.22;100.00;101072.81;5078110;28;20032;-73
2023/04/28 10:33:40;;;;;;;14.57;7.38;;;;;;;14.28;100.00;101065.59;5075718;28;20030;-73
2023/04/28 10:36:06;;;;;;;13.85;7.40;;;;;;;14.26;100.00;101065.78;5075347;28;20478;-72
2023/04/28 10:38:33;;;;;;;11.95;7.55;;;;;;;14.39;100.00;101068.53;5075338;28;20097;-72
2023/04/28 10:41:01;;;;;;;10.70;6.97;;;;;;;14.48;100.00;101071.91;5066912;28;20085;-72
2023/04/28 10:43:30;;;;;;;11.40;7.95;;;;;;;14.38;100.00;101074.25;5066424;28;20051;-73
2023/04/28 10:45:58;;;;;;;7.72;6.75;;;;;;;14.42;100.00;101070.00;5066100;28;20034;-73
2023/04/28 10:48:32;;;;;;;9.90;6.95;;;;;;;14.47;100.00;101070.22;5069809;28;20107;-72
2023/04/28 10:51:08;;;;;;;10.57;6.65;;;;;;;14.46;100.00;101063.00;5060572;28;20498;-72
2023/04/28 10:53:45;;;;;;;11.60;6.80;;;;;;;14.65;100.00;101067.59;5068062;28;20524;-72
2023/04/28 10:56:23;;;;;;;15.10;7.18;;;;;;;14.85;100.00;101068.34;5072632;28;20498;-72
2023/04/28 10:58:54;;;;;;;14.55;7.57;;;;;;;14.91;100.00;101076.59;5062161;28;20139;-72
2023/04/28 11:01:30;;;;;;;13.52;7.28;;;;;;;14.67;100.00;101071.00;5069123;28;20032;-72
2023/04/28 11:04:12;;;;;;;9.63;6.60;;;;;;;14.61;100.00;101066.31;5061720;28;20394;-72
2023/04/28 11:07:03;;;;;;;11.68;7.20;;;;;;;14.57;100.00;101067.84;5064761;28;20292;-72
2023/04/28 11:09:31;;;;;;;16.48;7.60;;;;;;;14.44;100.00;101065.97;5073568;28;20059;-73
2023/04/28 11:12:05;;;;;;;8.82;6.53;;;;;;;14.43;100.00;101067.03;5075123;28;20400;-72